Time;durP1;ratioP1;P1;durP2;ratioP2;P2;SDS_P1;SDS_P2;PMS_P1;PMS_P2;Temp;Humidity;BMP_temperature;BMP_pressure;BME280_temperature;BME280_humidity;BME280_pressure;Samples;Min_cycle;Max_cycle;Signal;HPM_P1;HPM_P2
2023/07/03 00:02:19;;;;;;;7.47;4.35;;;;;;;19.80;81.23;98852.03;4967222;28;20027;-88
2023/07/03 00:04:45;;;;;;;10.32;4.75;;;;;;;19.64;81.63;98853.81;4967057;28;20022;-89
2023/07/03 00:07:11;;;;;;;8.02;4.50;;;;;;;19.58;80.76;98861.44;4983258;28;20472;-89
2023/07/03 00:09:37;;;;;;;8.38;4.43;;;;;;;19.60;81.34;98861.91;4966039;28;20053;-88
2023/07/03 00:12:02;;;;;;;7.57;4.55;;;;;;;19.68;80.43;98863.72;4966428;28;20038;-89
2023/07/03 00:14:28;;;;;;;9.70;4.40;;;;;;;19.65;80.75;98860.88;4980088;28;20033;-88
2023/07/03 00:16:55;;;;;;;11.60;4.88;;;;;;;19.74;79.36;98872.53;4981811;28;20018;-89
2023/07/03 00:19:26;;;;;;;7.65;4.38;;;;;;;19.65;80.42;98863.59;4983440;28;20030;-88
2023/07/03 00:21:52;;;;;;;9.65;4.75;;;;;;;19.59;80.60;98869.31;4967486;28;20033;-89
2023/07/03 00:24:18;;;;;;;11.40;3.92;;;;;;;19.55;80.23;98876.59;4976505;28;20501;-89
2023/07/03 00:26:43;;;;;;;7.35;4.35;;;;;;;19.45;81.18;98865.31;4978092;28;20140;-89
2023/07/03 00:29:09;;;;;;;5.88;4.30;;;;;;;19.43;81.32;98873.84;4977887;28;20049;-89
2023/07/03 00:31:34;;;;;;;7.63;4.45;;;;;;;19.37;81.69;98872.47;4962781;28;20031;-89
2023/07/03 00:34:00;;;;;;;9.10;4.40;;;;;;;19.27;81.89;98870.97;4979103;28;20019;-89
2023/07/03 00:36:25;;;;;;;6.30;4.38;;;;;;;19.29;81.98;98882.34;4977603;28;20114;-89
2023/07/03 00:38:57;;;;;;;9.45;4.13;;;;;;;19.25;81.46;98866.97;4962113;28;20031;-89
2023/07/03 00:41:23;;;;;;;8.98;4.80;;;;;;;19.28;79.74;98866.28;4978794;28;20023;-89
2023/07/03 00:43:48;;;;;;;8.90;5.15;;;;;;;19.43;79.36;98875.78;4962121;28;20093;-89
2023/07/03 00:46:14;;;;;;;10.02;5.25;;;;;;;19.51;78.54;98869.41;4962649;28;20050;-89
2023/07/03 00:48:39;;;;;;;11.13;5.05;;;;;;;19.50;78.19;98868.59;4961505;28;20092;-88
2023/07/03 00:51:05;;;;;;;17.92;6.28;;;;;;;19.54;77.67;98874.19;4978041;28;20031;-88
2023/07/03 00:53:30;;;;;;;10.85;6.22;;;;;;;19.52;77.76;98863.59;4997585;28;20052;-89
2023/07/03 00:55:56;;;;;;;10.63;5.07;;;;;;;19.34;80.25;98867.66;4982814;28;20030;-88
2023/07/03 00:58:21;;;;;;;7.25;4.20;;;;;;;19.12;81.38;98872.41;4997043;28;20069;-89
2023/07/03 01:00:51;;;;;;;11.82;4.60;;;;;;;19.12;80.78;98864.22;4965154;28;20065;-89
2023/07/03 01:03:24;;;;;;;6.78;4.22;;;;;;;19.08;81.12;98874.22;4964683;28;20416;-88
2023/07/03 01:05:50;;;;;;;8.23;4.47;;;;;;;18.98;81.27;98875.44;4965141;28;20026;-88
2023/07/03 01:08:22;;;;;;;6.88;4.10;;;;;;;19.05;81.51;98879.53;4996319;28;20038;-87
2023/07/03 01:10:48;;;;;;;7.28;4.18;;;;;;;18.93;81.41;98872.94;4963707;28;20046;-88
2023/07/03 01:13:14;;;;;;;8.65;4.68;;;;;;;18.92;81.15;98871.31;4996252;28;20026;-89
2023/07/03 01:15:41;;;;;;;8.75;4.35;;;;;;;18.91;82.04;98883.38;4960829;28;20035;-89
2023/07/03 01:18:06;;;;;;;7.47;4.75;;;;;;;18.89;81.75;98887.59;4945562;28;20124;-88
2023/07/03 01:20:35;;;;;;;9.68;5.03;;;;;;;18.86;81.79;98882.78;4945980;28;20065;-89
2023/07/03 01:23:10;;;;;;;8.20;4.93;;;;;;;18.84;81.26;98877.66;4944847;28;20034;-89
2023/07/03 01:25:36;;;;;;;10.45;4.63;;;;;;;18.88;81.15;98878.59;4945319;28;20537;-89
2023/07/03 01:28:01;;;;;;;10.93;4.60;;;;;;;18.83;81.67;98880.75;4945537;28;20125;-89
2023/07/03 01:30:28;;;;;;;13.05;4.70;;;;;;;18.89;81.66;98893.03;4945906;28;20098;-89
2023/07/03 01:32:54;;;;;;;6.38;4.40;;;;;;;18.84;82.07;98874.94;4961149;28;20030;-89
2023/07/03 01:35:19;;;;;;;7.55;4.28;;;;;;;18.80;82.26;98879.50;4945005;28;20034;-89
2023/07/03 01:37:49;;;;;;;7.80;4.45;;;;;;;18.86;82.29;98882.78;4945046;28;20023;-89
2023/07/03 01:40:16;;;;;;;10.18;5.32;;;;;;;18.71;82.75;98879.50;4961229;28;20031;-89
2023/07/03 01:43:23;;;;;;;7.22;4.78;;;;;;;18.80;82.14;98886.84;4959763;28;20496;-89
2023/07/03 01:45:49;;;;;;;8.30;4.30;;;;;;;18.77;82.40;98885.56;4976131;28;20086;-89
2023/07/03 01:48:15;;;;;;;9.48;4.85;;;;;;;18.71;82.31;98874.06;4967478;28;20111;-89
2023/07/03 01:50:41;;;;;;;11.85;5.45;;;;;;;18.75;81.96;98883.16;4976567;28;20033;-89
2023/07/03 01:53:15;;;;;;;14.00;5.25;;;;;;;18.70;82.05;98883.38;4979677;28;20491;-90
2023/07/03 01:55:56;;;;;;;7.05;4.70;;;;;;;18.71;81.24;98873.28;4980915;28;20026;-89
2023/07/03 01:58:25;;;;;;;11.02;4.53;;;;;;;18.90;81.00;98883.72;4964881;28;20034;-90
2023/07/03 02:00:52;;;;;;;7.10;4.35;;;;;;;18.92;79.38;98881.44;4979332;28;20491;-89
2023/07/03 02:03:32;;;;;;;10.05;4.60;;;;;;;19.01;78.78;98890.34;4963993;28;20408;-89
2023/07/03 02:05:58;;;;;;;7.20;3.95;;;;;;;19.00;78.53;98888.75;4965455;28;20038;-89
2023/07/03 02:08:24;;;;;;;7.88;4.20;;;;;;;18.80;80.38;98884.13;4975964;28;20062;-89
2023/07/03 02:10:53;;;;;;;6.07;4.00;;;;;;;18.70;80.64;98888.06;4980031;28;20417;-89
2023/07/03 02:13:18;;;;;;;6.45;4.13;;;;;;;18.70;81.28;98890.78;4964456;28;20034;-89
2023/07/03 02:15:43;;;;;;;8.18;4.22;;;;;;;18.61;81.21;98893.56;4978100;28;20029;-89
2023/07/03 02:18:09;;;;;;;7.75;3.90;;;;;;;18.58;81.04;98896.97;4979995;28;20014;-89
2023/07/03 02:20:36;;;;;;;6.25;3.90;;;;;;;18.53;81.40;98897.16;4996120;28;20041;-89
2023/07/03 02:23:01;;;;;;;8.60;4.63;;;;;;;18.53;81.32;98897.97;4979659;28;20030;-89
2023/07/03 02:25:27;;;;;;;8.15;3.83;;;;;;;18.48;80.97;98900.88;4979993;28;20117;-89
2023/07/03 02:27:52;;;;;;;8.43;3.83;;;;;;;18.49;81.21;98898.94;4963375;28;20026;-89
2023/07/03 02:30:18;;;;;;;9.32;4.40;;;;;;;18.46;80.88;98900.41;4979792;28;20539;-89
2023/07/03 02:32:43;;;;;;;7.43;4.05;;;;;;;18.52;81.26;98914.66;4980396;28;20035;-89
2023/07/03 02:35:09;;;;;;;5.97;4.20;;;;;;;18.55;80.54;98911.25;4962774;28;20093;-89
2023/07/03 02:37:35;;;;;;;8.40;4.82;;;;;;;18.48;81.32;98913.72;4965743;28;20397;-89
2023/07/03 02:40:00;;;;;;;8.50;4.40;;;;;;;18.44;82.19;98919.03;4966493;28;20081;-89
2023/07/03 02:42:25;;;;;;;8.25;4.18;;;;;;;18.44;81.73;98923.69;4968189;28;20472;-89
2023/07/03 02:44:51;;;;;;;9.52;4.28;;;;;;;18.46;81.94;98926.88;4967629;28;20053;-89
2023/07/03 02:47:17;;;;;;;7.90;4.07;;;;;;;18.46;81.52;98929.63;4967012;28;20428;-89
2023/07/03 02:49:42;;;;;;;7.18;4.18;;;;;;;18.38;81.28;98925.81;4967746;28;20034;-89
2023/07/03 02:52:08;;;;;;;5.65;3.63;;;;;;;18.45;80.46;98936.19;4967413;28;20026;-89
2023/07/03 02:54:33;;;;;;;11.15;4.63;;;;;;;18.36;80.56;98928.06;4966656;28;20026;-89
2023/07/03 02:56:59;;;;;;;8.57;4.50;;;;;;;18.50;80.12;98927.81;4968354;28;20006;-89
2023/07/03 02:59:24;;;;;;;10.98;3.95;;;;;;;18.62;79.47;98930.63;4982093;28;20030;-89
2023/07/03 03:01:50;;;;;;;11.32;4.45;;;;;;;18.69;79.07;98932.81;4967897;28;20033;-89
2023/07/03 03:04:16;;;;;;;9.32;4.07;;;;;;;18.72;78.41;98932.16;4966908;28;20472;-89
2023/07/03 03:06:42;;;;;;;6.95;3.95;;;;;;;18.74;78.47;98921.72;4966323;28;20026;-89
2023/07/03 03:09:09;;;;;;;11.45;4.07;;;;;;;18.84;78.05;98937.66;4963573;28;20441;-89
2023/07/03 03:11:35;;;;;;;7.65;4.72;;;;;;;18.83;78.01;98933.38;4963343;28;20022;-89
2023/07/03 03:14:00;;;;;;;6.93;3.63;;;;;;;18.88;77.62;98937.81;4948320;28;20442;-89
2023/07/03 03:16:26;;;;;;;6.65;4.05;;;;;;;18.82;78.08;98928.22;4947464;28;20093;-89
2023/07/03 03:18:51;;;;;;;8.85;4.07;;;;;;;18.82;78.15;98939.94;4947837;28;20054;-89
2023/07/03 03:21:17;;;;;;;6.60;3.70;;;;;;;18.84;78.40;98934.16;4948038;28;20023;-89
2023/07/03 03:23:43;;;;;;;11.50;4.43;;;;;;;18.88;77.49;98933.16;4967422;28;20076;-90
2023/07/03 03:26:08;;;;;;;8.30;4.28;;;;;;;18.98;76.65;98942.84;4965827;28;20026;-89
2023/07/03 03:28:33;;;;;;;8.25;3.85;;;;;;;18.90;77.26;98941.00;4967110;28;20018;-89
2023/07/03 03:30:59;;;;;;;6.55;4.03;;;;;;;18.92;77.08;98944.19;4949656;28;20034;-89
2023/07/03 03:33:24;;;;;;;6.65;3.90;;;;;;;19.04;76.43;98940.72;4966197;28;20030;-89
2023/07/03 03:35:50;;;;;;;10.88;4.32;;;;;;;18.98;76.37;98940.91;4966361;28;20453;-89
2023/07/03 03:38:15;;;;;;;10.27;3.60;;;;;;;19.13;75.71;98949.63;4966414;28;20038;-90
2023/07/03 03:40:43;;;;;;;6.72;3.72;;;;;;;19.07;75.63;98942.78;4966734;28;20033;-89
2023/07/03 03:43:08;;;;;;;10.00;4.35;;;;;;;19.16;75.81;98951.69;4982051;28;20088;-90
2023/07/03 03:45:34;;;;;;;6.78;4.20;;;;;;;19.19;75.03;98945.53;4968010;28;20034;-91
2023/07/03 03:47:59;;;;;;;8.63;4.00;;;;;;;19.09;75.64;98951.41;4986526;28;20124;-91
2023/07/03 03:50:26;;;;;;;9.48;4.20;;;;;;;19.06;76.13;98963.81;4969534;28;20052;-91
2023/07/03 03:52:52;;;;;;;7.93;3.90;;;;;;;18.98;76.95;98961.97;4973624;28;20022;-92
2023/07/03 03:55:17;;;;;;;10.52;4.72;;;;;;;18.97;76.94;98955.72;4969916;28;20490;-91
2023/07/03 03:57:43;;;;;;;10.38;5.00;;;;;;;19.02;76.50;98954.69;4970035;28;20026;-91
2023/07/03 04:00:20;;;;;;;6.90;4.15;;;;;;;19.03;77.04;98945.41;4970431;28;20026;-91
2023/07/03 04:02:46;;;;;;;8.23;4.25;;;;;;;18.97;76.13;98952.19;4973584;28;20096;-90
2023/07/03 04:05:12;;;;;;;11.93;4.53;;;;;;;19.03;76.91;98956.31;4969248;28;20029;-90
2023/07/03 04:07:37;;;;;;;8.02;4.60;;;;;;;18.96;76.65;98948.66;4970037;28;20100;-91
2023/07/03 04:10:03;;;;;;;7.22;4.35;;;;;;;19.03;77.89;98956.31;4968945;28;20022;-91
2023/07/03 04:12:29;;;;;;;6.20;4.03;;;;;;;19.11;76.86;98949.97;4986708;28;20029;-95
2023/07/03 04:14:54;;;;;;;9.38;4.47;;;;;;;19.09;76.88;98949.50;4969478;28;20033;-95
2023/07/03 04:17:20;;;;;;;8.38;4.60;;;;;;;19.30;76.16;98974.03;4972217;28;20088;-95
2023/07/03 04:19:45;;;;;;;7.05;4.47;;;;;;;19.20;76.14;98960.81;4989738;28;20032;-94
2023/07/03 04:22:11;;;;;;;7.25;5.30;;;;;;;19.31;76.69;98972.09;5005791;28;20021;-95
2023/07/03 04:24:38;;;;;;;6.50;4.20;;;;;;;19.34;75.75;98957.75;4989836;28;20103;-95
2023/07/03 04:27:03;;;;;;;8.77;5.00;;;;;;;19.49;75.84;98962.59;4990973;28;20017;-95
2023/07/03 04:29:29;;;;;;;7.05;4.50;;;;;;;19.56;74.71;98962.81;4990631;28;20056;-96
2023/07/03 04:31:57;;;;;;;12.20;4.75;;;;;;;19.71;75.54;98975.06;4994898;28;20033;-96
2023/07/03 04:34:23;;;;;;;10.27;4.97;;;;;;;19.76;74.73;98976.78;4990368;28;20495;-95
2023/07/03 04:36:48;;;;;;;9.32;4.60;;;;;;;19.77;74.20;98965.50;5006824;28;20029;-94
2023/07/03 04:39:14;;;;;;;12.05;4.90;;;;;;;19.74;74.82;98952.53;4984016;28;20105;-95
2023/07/03 04:41:39;;;;;;;9.25;4.80;;;;;;;19.82;75.31;98982.81;4970319;28;20026;-95
2023/07/03 04:44:06;;;;;;;9.00;4.45;;;;;;;19.90;75.07;98976.44;4972078;28;20491;-95
2023/07/03 04:46:31;;;;;;;11.60;4.90;;;;;;;19.87;74.96;98968.94;4970390;28;20081;-96
2023/07/03 04:49:04;;;;;;;10.73;4.72;;;;;;;19.86;73.80;98949.03;4969799;28;20492;-96
2023/07/03 04:51:30;;;;;;;7.50;4.82;;;;;;;20.03;73.96;98978.06;5003467;28;20038;-96
2023/07/03 04:53:57;;;;;;;8.13;4.30;;;;;;;20.17;73.68;98989.44;4970301;28;20090;-95
2023/07/03 04:56:24;;;;;;;12.43;4.97;;;;;;;20.13;74.71;98977.59;4969410;28;20049;-96
2023/07/03 04:58:50;;;;;;;7.93;4.40;;;;;;;20.28;74.34;98986.25;4969176;28;20037;-96
2023/07/03 05:01:16;;;;;;;9.70;5.28;;;;;;;20.15;73.27;98979.97;4968938;28;20092;-95
2023/07/03 05:03:42;;;;;;;11.50;5.28;;;;;;;20.31;73.68;98991.03;4987930;28;20030;-96
2023/07/03 05:06:07;;;;;;;7.93;4.70;;;;;;;20.35;73.45;98989.22;4970656;28;20041;-96
2023/07/03 05:08:33;;;;;;;10.48;4.78;;;;;;;20.54;72.28;98983.97;4970307;28;20060;-96
2023/07/03 05:10:59;;;;;;;9.52;4.68;;;;;;;20.74;72.68;98997.84;4969352;28;20440;-93
2023/07/03 05:13:26;;;;;;;9.82;5.13;;;;;;;20.93;70.68;98983.53;4968380;28;20014;-95
2023/07/03 05:15:53;;;;;;;9.88;5.07;;;;;;;20.99;69.82;98972.00;4988423;28;20045;-93
2023/07/03 05:18:18;;;;;;;10.13;5.57;;;;;;;21.24;68.98;98987.53;4967920;28;20132;-94
2023/07/03 05:20:47;;;;;;;10.48;5.97;;;;;;;21.20;69.74;98981.94;4979359;28;20052;-94
2023/07/03 05:23:15;;;;;;;13.60;6.63;;;;;;;21.07;70.02;98966.72;4972062;28;20038;-95
2023/07/03 05:25:45;;;;;;;18.92;12.82;;;;;;;21.42;70.17;98999.81;4972321;28;20088;-93
2023/07/03 05:28:12;;;;;;;14.75;7.72;;;;;;;21.48;70.25;98995.66;4985808;28;20030;-93
2023/07/03 05:30:38;;;;;;;13.68;6.40;;;;;;;21.55;70.59;98993.09;4986017;28;20057;-94
2023/07/03 05:33:04;;;;;;;11.85;5.53;;;;;;;21.51;69.34;98973.03;4971191;28;20038;-95
2023/07/03 05:35:29;;;;;;;12.10;6.70;;;;;;;21.55;70.30;98978.63;4973236;28;20038;-96
2023/07/03 05:38:00;;;;;;;10.63;6.90;;;;;;;21.58;70.29;98981.47;4973013;28;20018;-96
2023/07/03 05:40:34;;;;;;;11.88;6.85;;;;;;;21.63;69.81;98985.88;4994161;28;20064;-96
2023/07/03 05:43:03;;;;;;;14.98;9.60;;;;;;;21.67;70.09;98964.06;4998540;28;20074;-95
2023/07/03 05:45:28;;;;;;;15.63;7.60;;;;;;;21.76;68.51;98967.41;4991844;28;20038;-94
2023/07/03 05:47:56;;;;;;;11.60;7.15;;;;;;;21.86;68.71;98966.09;4973264;28;20041;-94
2023/07/03 05:50:22;;;;;;;9.82;7.50;;;;;;;22.16;69.22;98986.41;4970648;28;20094;-92
2023/07/03 05:52:48;;;;;;;14.25;8.05;;;;;;;22.18;68.31;98969.59;4975291;28;20050;-95
2023/07/03 05:55:24;;;;;;;16.05;7.90;;;;;;;22.18;68.38;98964.91;4974510;28;20125;-96
2023/07/03 06:01:16;;;;;;;14.85;7.70;;;;;;;22.43;67.35;98972.94;5010215;28;20098;-96
2023/07/03 06:08:47;;;;;;;10.35;7.30;;;;;;;22.56;66.94;98973.63;5019985;28;20050;-92
2023/07/03 06:11:13;;;;;;;10.93;7.50;;;;;;;22.71;67.74;98985.72;4972805;28;20049;-91
2023/07/03 06:13:44;;;;;;;11.98;7.25;;;;;;;22.77;66.97;98974.09;4972002;28;20636;-91
2023/07/03 06:16:09;;;;;;;13.45;7.32;;;;;;;23.07;65.35;98986.47;4934433;29;20036;-95
2023/07/03 06:18:51;;;;;;;23.02;7.38;;;;;;;23.27;64.68;98996.28;4911813;29;20102;-95
2023/07/03 06:21:16;;;;;;;10.95;7.60;;;;;;;23.16;64.75;98978.81;4904188;29;20537;-95
2023/07/03 06:23:53;;;;;;;16.60;10.15;;;;;;;23.30;64.46;98979.06;4915985;29;20049;-96
2023/07/03 06:26:19;;;;;;;12.85;8.05;;;;;;;23.48;63.52;98990.41;4927285;28;20058;-96
2023/07/03 06:28:47;;;;;;;11.00;7.53;;;;;;;23.40;63.85;98972.19;4950400;29;20035;-95
2023/07/03 06:31:15;;;;;;;13.77;7.97;;;;;;;23.49;63.80;98980.22;4936841;29;20055;-96
2023/07/03 06:33:44;;;;;;;10.93;7.78;;;;;;;23.61;63.19;98988.28;5136475;23;20054;-95
2023/07/03 06:36:20;;;;;;;17.77;10.63;;;;;;;23.79;63.34;98983.13;4981099;28;20021;-93
2023/07/03 06:38:58;;;;;;;12.68;7.30;;;;;;;23.88;59.14;98991.13;4978290;28;20053;-90
2023/07/03 06:41:26;;;;;;;10.93;7.82;;;;;;;24.11;59.84;99004.88;4985330;28;20026;-94
2023/07/03 06:43:51;;;;;;;12.55;7.90;;;;;;;24.26;60.47;99001.19;4985621;28;20129;-93
2023/07/03 06:46:17;;;;;;;16.60;8.90;;;;;;;24.36;59.77;98988.75;4996617;28;20065;-94
2023/07/03 06:48:43;;;;;;;13.57;8.38;;;;;;;24.51;58.43;98989.78;4975134;28;20026;-94
2023/07/03 06:51:11;;;;;;;16.50;8.30;;;;;;;24.59;57.77;98972.19;4974706;28;20026;-91
2023/07/03 06:58:12;;;;;;;12.32;7.45;;;;;;;25.06;56.57;98984.59;5003524;28;20065;-92
2023/07/03 07:00:37;;;;;;;13.43;7.45;;;;;;;25.16;56.25;98992.19;4992176;28;20026;-94
2023/07/03 07:03:19;;;;;;;12.73;7.00;;;;;;;25.26;54.68;98981.72;4978364;28;20110;-95
2023/07/03 07:06:11;;;;;;;8.07;6.35;;;;;;;25.42;54.81;98993.28;5002430;28;20056;-96
2023/07/03 07:08:45;;;;;;;10.43;6.45;;;;;;;25.50;53.81;98975.66;4980553;28;20065;-94
2023/07/03 07:11:16;;;;;;;11.05;6.70;;;;;;;25.90;53.61;98998.13;5010921;28;20037;-95
2023/07/03 07:13:47;;;;;;;13.38;8.43;;;;;;;26.15;53.05;99018.44;5007679;28;20412;-96
2023/07/03 07:16:49;;;;;;;;;;;;;;;;;;;;;
2023/07/03 07:19:17;;;;;;;10.15;6.68;;;;;;;26.14;52.17;98988.47;5029925;28;20054;-95
2023/07/03 07:21:43;;;;;;;7.50;6.68;;;;;;;26.28;52.10;98994.09;4994252;28;20500;-96
2023/07/03 07:24:17;;;;;;;9.63;7.43;;;;;;;26.42;51.82;99010.75;4981574;28;20037;-95
2023/07/03 07:26:42;;;;;;;9.05;6.82;;;;;;;26.47;52.12;98997.78;4980406;28;20645;-88
2023/07/03 07:29:08;;;;;;;8.10;6.47;;;;;;;26.56;52.25;98998.22;4973486;28;20103;-91
2023/07/03 07:31:39;;;;;;;11.00;6.32;;;;;;;26.75;51.29;98999.91;4977072;28;20026;-92
2023/07/03 07:34:06;;;;;;;11.07;6.93;;;;;;;26.89;50.27;99007.50;4987302;28;20030;-95
2023/07/03 07:40:09;;;;;;;11.23;6.65;;;;;;;26.83;49.82;99003.53;4993362;28;20044;-92
2023/07/03 07:42:41;;;;;;;9.90;7.22;;;;;;;27.12;49.61;99009.97;5000082;28;20042;-92
2023/07/03 07:45:12;;;;;;;16.00;12.70;;;;;;;27.03;50.69;98996.50;4979176;28;20030;-90
2023/07/03 07:48:13;;;;;;;17.75;11.82;;;;;;;27.22;49.53;98989.88;4975216;28;20022;-91
2023/07/03 07:50:42;;;;;;;8.27;6.47;;;;;;;27.53;48.52;99012.50;4989784;28;20044;-90
2023/07/03 07:53:08;;;;;;;9.32;6.43;;;;;;;27.67;46.77;98995.16;4976855;28;20090;-94
2023/07/03 07:55:38;;;;;;;9.05;6.60;;;;;;;27.62;47.72;99007.38;5004558;28;20018;-93
2023/07/03 07:58:11;;;;;;;8.65;6.88;;;;;;;27.39;48.28;98989.16;4999943;28;20085;-96
2023/07/03 08:00:36;;;;;;;8.35;6.35;;;;;;;27.66;47.76;99013.69;4996504;28;20033;-96
2023/07/03 08:03:05;;;;;;;10.02;6.18;;;;;;;27.65;46.54;99016.88;4980996;28;20499;-96
2023/07/03 08:05:38;;;;;;;7.95;6.15;;;;;;;27.54;46.54;99017.66;4974482;28;20026;-91
2023/07/03 08:08:10;;;;;;;8.15;6.43;;;;;;;27.67;47.21;99020.81;4973593;28;20037;-96
2023/07/03 08:10:50;;;;;;;10.60;6.15;;;;;;;27.73;46.88;99038.63;4978025;28;20045;-92
2023/07/03 08:13:19;;;;;;;8.70;6.78;;;;;;;27.82;46.67;99029.94;4974506;28;20026;-95
2023/07/03 08:15:55;;;;;;;7.97;6.10;;;;;;;27.76;46.45;99028.75;4995646;28;20029;-96
2023/07/03 08:18:21;;;;;;;10.32;7.65;;;;;;;27.92;46.18;99017.34;4993853;28;20121;-95
2023/07/03 08:21:13;;;;;;;9.73;6.20;;;;;;;27.82;46.17;99005.03;4981153;28;20012;-96
2023/07/03 08:39:43;;;;;;;;;;;;;;;28.74;44.81;99030.34;5049105;28;20052;-96
2023/07/03 08:42:23;;;;;;;21.35;16.88;;;;;;;28.65;44.75;99029.97;5017504;28;19917;-95
2023/07/03 08:44:52;;;;;;;6.70;5.80;;;;;;;28.68;44.45;99032.75;5036398;28;20033;-94
2023/07/03 08:47:23;;;;;;;12.07;7.18;;;;;;;28.78;43.91;99043.00;4993150;28;20107;-96
2023/07/03 08:49:49;;;;;;;8.45;5.90;;;;;;;28.77;43.42;99043.41;4977560;28;20029;-95
2023/07/03 08:52:25;;;;;;;8.27;6.53;;;;;;;28.83;44.96;99041.03;5003201;28;20075;-88
2023/07/03 08:54:50;;;;;;;7.85;6.13;;;;;;;28.81;45.13;99027.56;4990991;28;20092;-91
2023/07/03 08:57:47;;;;;;;7.70;5.85;;;;;;;29.02;44.25;99037.78;5003809;28;20116;-92
2023/07/03 09:00:25;;;;;;;9.80;6.13;;;;;;;28.86;44.00;99026.34;4994863;28;20117;-91
2023/07/03 09:02:53;;;;;;;8.07;5.82;;;;;;;28.84;43.99;99023.97;4983737;28;20026;-94
2023/07/03 09:08:36;;;;;;;7.18;5.63;;;;;;;28.93;43.89;99046.53;5921412;22;20031;-96
2023/07/03 09:11:13;;;;;;;7.45;5.43;;;;;;;28.99;41.89;99021.94;4498200;28;15065695;-95
2023/07/03 09:13:49;;;;;;;6.13;4.90;;;;;;;29.00;43.68;99034.63;5033743;28;20034;-95
2023/07/03 09:16:51;;;;;;;;;;;;;;;;;;;;;
2023/07/03 09:19:30;;;;;;;8.98;6.50;;;;;;;29.21;41.84;99006.81;5055108;28;20068;-96
2023/07/03 09:22:00;;;;;;;7.47;6.15;;;;;;;29.60;41.49;99019.69;5021208;28;20022;-93
2023/07/03 09:24:44;;;;;;;12.53;7.73;;;;;;;29.70;41.68;99020.88;5046010;28;20037;-93
2023/07/03 09:27:17;;;;;;;8.05;5.47;;;;;;;29.28;42.04;99008.00;5008650;28;20017;-91
2023/07/03 09:29:43;;;;;;;10.07;5.38;;;;;;;29.18;42.89;99021.50;5005234;28;20067;-93
2023/07/03 09:32:11;;;;;;;7.57;5.38;;;;;;;29.24;41.14;99001.66;4993852;28;20029;-90
2023/07/03 09:35:17;;;;;;;6.43;5.70;;;;;;;29.39;41.87;99025.38;5000761;28;20033;-93
2023/07/03 09:37:51;;;;;;;7.47;5.35;;;;;;;29.27;41.24;99000.88;5035683;28;20401;-91
2023/07/03 09:40:45;;;;;;;6.68;5.15;;;;;;;29.32;42.11;99028.16;5025307;28;20049;-96
2023/07/03 09:43:12;;;;;;;7.47;5.45;;;;;;;28.95;42.02;99013.66;5008217;28;20037;-91
2023/07/03 09:45:38;;;;;;;72.57;55.33;;;;;;;28.97;43.16;99016.00;5008514;28;20025;-91
2023/07/03 09:48:16;;;;;;;6.97;5.72;;;;;;;29.21;41.95;99012.38;5007941;28;20048;-92
2023/07/03 09:50:48;;;;;;;8.93;5.10;;;;;;;29.10;41.72;98989.47;5008183;28;20518;-95
2023/07/03 09:53:30;;;;;;;;;;;;;;;;;;;;;
2023/07/03 09:55:57;;;;;;;10.60;6.05;;;;;;;29.38;42.88;99016.25;5036382;28;20180;-93
2023/07/03 09:58:25;;;;;;;7.00;5.22;;;;;;;29.13;41.98;99007.28;5022218;28;20132;-89
2023/07/03 10:00:54;;;;;;;15.35;8.23;;;;;;;29.18;42.66;99004.88;5022587;28;20033;-92
2023/07/03 10:03:25;;;;;;;8.27;5.85;;;;;;;29.41;42.86;99020.22;5020190;28;20041;-92
2023/07/03 10:06:14;;;;;;;7.88;5.22;;;;;;;29.35;42.39;99014.28;5012788;28;20063;-90
2023/07/03 10:08:47;;;;;;;9.43;6.05;;;;;;;29.28;42.13;99002.44;5006359;28;20052;-90
2023/07/03 10:11:14;;;;;;;6.05;5.13;;;;;;;29.22;40.59;99027.06;5009202;28;20120;-95
2023/07/03 10:14:08;;;;;;;8.18;5.53;;;;;;;29.07;40.67;99020.72;5011274;28;20129;-95
2023/07/03 10:16:38;;;;;;;7.68;5.45;;;;;;;29.15;38.66;98996.56;5011552;28;20077;-93
2023/07/03 10:20:00;;;;;;;6.00;4.72;;;;;;;29.45;38.17;99015.44;5007214;28;20061;-91
2023/07/03 10:22:31;;;;;;;11.75;10.52;;;;;;;29.50;38.97;99015.00;5028108;28;20047;-92
2023/07/03 10:25:00;;;;;;;;;;;;;;;29.61;41.13;99021.28;5020628;28;20087;-89
2023/07/03 10:27:28;;;;;;;7.85;5.50;;;;;;;29.50;41.59;99005.91;5034553;28;19917;-89
2023/07/03 10:29:53;;;;;;;6.47;5.25;;;;;;;29.57;41.42;99008.63;5023050;28;20040;-91
2023/07/03 10:32:20;;;;;;;7.35;5.38;;;;;;;29.61;42.27;99021.28;5018080;28;20139;-92
2023/07/03 10:34:57;;;;;;;6.85;5.50;;;;;;;29.44;42.17;99001.97;4988623;28;20034;-92
2023/07/03 10:37:23;;;;;;;7.70;5.30;;;;;;;29.55;40.86;99022.09;5014363;28;20022;-91
2023/07/03 10:40:19;;;;;;;6.57;5.25;;;;;;;29.31;41.80;98999.66;4987316;28;20127;-91
2023/07/03 10:43:47;;;;;;;6.55;5.55;;;;;;;29.44;42.68;99015.84;4993976;28;20128;-91
2023/07/03 10:46:23;;;;;;;8.18;5.85;;;;;;;29.20;41.12;99007.25;4927468;29;20051;-92
2023/07/03 10:48:58;;;;;;;11.00;6.63;;;;;;;29.10;41.79;98992.22;4945063;28;20023;-91
2023/07/03 10:52:13;;;;;;;8.35;5.22;;;;;;;29.41;40.21;99018.22;4984423;28;20117;-94
2023/07/03 10:54:58;;;;;;;12.75;5.57;;;;;;;29.39;40.69;99009.53;5003675;28;20037;-95
2023/07/03 10:57:36;;;;;;;7.72;5.20;;;;;;;29.18;42.06;99004.88;5012099;28;20026;-92
2023/07/03 11:00:07;;;;;;;9.02;4.88;;;;;;;29.13;41.90;98998.94;5019477;28;20026;-92
2023/07/03 11:02:41;;;;;;;9.98;5.50;;;;;;;29.12;41.74;98994.63;5014435;28;20021;-92
2023/07/03 11:05:34;;;;;;;7.68;5.40;;;;;;;29.33;42.07;98982.63;5041765;28;20026;-93
2023/07/03 11:11:40;;;;;;;7.28;4.93;;;;;;;29.53;39.97;99003.09;5038344;28;19909;-94
2023/07/03 11:14:25;;;;;;;8.02;5.25;;;;;;;29.54;40.37;98999.13;5034435;28;20045;-94
2023/07/03 11:17:25;;;;;;;10.63;6.68;;;;;;;29.75;40.73;99020.41;5011562;28;20042;-93
2023/07/03 11:23:54;;;;;;;6.75;5.10;;;;;;;30.05;40.25;98991.25;4950378;29;20024;-96
2023/07/03 11:26:32;;;;;;;8.45;5.80;;;;;;;30.00;40.12;98997.25;5001798;28;20034;-95
2023/07/03 11:28:58;;;;;;;8.60;6.65;;;;;;;29.79;41.33;98996.19;4995049;28;20126;-95
2023/07/03 11:31:24;;;;;;;7.35;5.60;;;;;;;30.03;40.27;99002.00;5018303;28;20480;-94
2023/07/03 11:33:54;;;;;;;6.95;5.55;;;;;;;29.95;39.83;98987.38;4995079;28;20018;-93
2023/07/03 11:36:37;;;;;;;6.68;5.32;;;;;;;30.09;39.78;98992.03;5027535;28;20034;-94
2023/07/03 11:39:24;;;;;;;7.95;5.30;;;;;;;29.96;39.03;98980.59;5011722;28;20424;-95
2023/07/03 11:41:59;;;;;;;7.63;5.82;;;;;;;29.74;39.06;98963.34;4991728;28;20022;-95
2023/07/03 11:44:30;;;;;;;7.57;5.68;;;;;;;29.94;39.22;98991.31;5008293;28;20476;-96
2023/07/03 11:47:20;;;;;;;6.45;5.00;;;;;;;29.82;38.28;98977.94;5006740;28;20073;-93
2023/07/03 11:50:13;;;;;;;8.07;5.30;;;;;;;29.58;39.39;98979.69;4991191;28;20034;-94
2023/07/03 11:52:39;;;;;;;6.70;5.68;;;;;;;29.60;40.54;98997.50;4971890;28;20047;-94
2023/07/03 11:55:36;;;;;;;6.65;5.30;;;;;;;29.61;40.67;99009.38;4992972;28;20105;-95
2023/07/03 11:58:01;;;;;;;7.70;5.32;;;;;;;29.39;41.09;98987.31;4933064;29;20031;-95
2023/07/03 12:00:29;;;;;;;6.80;5.13;;;;;;;29.21;41.63;98986.63;4936654;29;20042;-95
2023/07/03 12:03:14;;;;;;;5.88;5.05;;;;;;;29.31;41.00;98996.88;4956234;28;20035;-96
2023/07/03 12:05:47;;;;;;;8.10;5.78;;;;;;;29.42;40.32;98996.81;4970839;29;20023;-96
2023/07/03 12:08:19;;;;;;;8.23;5.50;;;;;;;29.61;40.39;98990.78;4961424;29;20583;-94
2023/07/03 12:11:03;;;;;;;7.45;5.18;;;;;;;29.73;40.75;98988.72;4955110;29;20037;-92
2023/07/03 12:17:18;;;;;;;9.18;5.78;;;;;;;29.82;39.58;98969.59;4976416;28;20034;-96
2023/07/03 12:19:45;;;;;;;8.57;5.90;;;;;;;29.85;40.30;98966.03;4943473;29;20133;-93
2023/07/03 12:22:33;;;;;;;7.80;6.00;;;;;;;29.84;40.02;98952.56;4949062;29;20035;-94
2023/07/03 12:25:02;;;;;;;7.25;5.32;;;;;;;29.96;38.76;98972.28;4941298;29;20071;-94
2023/07/03 12:27:47;;;;;;;6.22;5.10;;;;;;;29.91;38.42;98974.72;4917983;29;20031;-96
2023/07/03 12:30:33;;;;;;;7.70;5.50;;;;;;;29.69;38.62;98957.41;4942218;28;20611;-96
2023/07/03 12:32:59;;;;;;;9.25;5.57;;;;;;;29.77;39.00;98967.28;4937361;29;20049;-95
2023/07/03 12:35:30;;;;;;;6.80;5.43;;;;;;;29.81;39.18;98965.28;4934874;29;20015;-95
2023/07/03 12:38:04;;;;;;;8.20;5.38;;;;;;;29.94;38.72;98952.47;4934630;29;20023;-93
2023/07/03 12:41:00;;;;;;;10.32;8.15;;;;;;;30.26;38.03;98967.25;4962565;28;20512;-93